sensor_id;sensor_type;location;lat;lon;timestamp;temperature;humidity
16128;DHT22;8168;49.036;7.690;2023-01-31T00:00:53;3.80;99.90
16128;DHT22;8168;49.036;7.690;2023-01-31T00:03:23;3.80;99.90
16128;DHT22;8168;49.036;7.690;2023-01-31T00:05:54;4.00;99.90
16128;DHT22;8168;49.036;7.690;2023-01-31T00:08:25;3.80;99.90
16128;DHT22;8168;49.036;7.690;2023-01-31T00:10:58;3.80;99.90
16128;DHT22;8168;49.036;7.690;2023-01-31T00:13:28;3.80;99.90
16128;DHT22;8168;49.036;7.690;2023-01-31T00:15:59;3.90;99.90
16128;DHT22;8168;49.036;7.690;2023-01-31T00:18:30;4.40;99.90
16128;DHT22;8168;49.036;7.690;2023-01-31T00:21:06;4.10;99.90
16128;DHT22;8168;49.036;7.690;2023-01-31T00:23:38;3.90;99.90
16128;DHT22;8168;49.036;7.690;2023-01-31T00:26:20;3.80;99.90
16128;DHT22;8168;49.036;7.690;2023-01-31T00:28:55;3.80;99.90
16128;DHT22;8168;49.036;7.690;2023-01-31T00:31:27;4.10;99.90
16128;DHT22;8168;49.036;7.690;2023-01-31T00:33:58;3.80;99.90
16128;DHT22;8168;49.036;7.690;2023-01-31T00:36:31;5.40;99.90
16128;DHT22;8168;49.036;7.690;2023-01-31T00:39:03;3.80;99.90
16128;DHT22;8168;49.036;7.690;2023-01-31T00:41:36;3.80;99.90
16128;DHT22;8168;49.036;7.690;2023-01-31T00:44:07;3.90;99.90
16128;DHT22;8168;49.036;7.690;2023-01-31T00:46:37;3.80;99.90
16128;DHT22;8168;49.036;7.690;2023-01-31T00:49:08;3.80;99.90
16128;DHT22;8168;49.036;7.690;2023-01-31T00:51:38;3.80;99.90
16128;DHT22;8168;49.036;7.690;2023-01-31T00:54:10;3.70;99.90
16128;DHT22;8168;49.036;7.690;2023-01-31T00:56:40;3.70;99.90
16128;DHT22;8168;49.036;7.690;2023-01-31T00:59:12;4.00;99.90
16128;DHT22;8168;49.036;7.690;2023-01-31T01:01:42;4.10;99.90
16128;DHT22;8168;49.036;7.690;2023-01-31T01:04:13;3.70;99.90
16128;DHT22;8168;49.036;7.690;2023-01-31T01:06:44;3.80;99.90
16128;DHT22;8168;49.036;7.690;2023-01-31T01:09:16;4.00;99.90
16128;DHT22;8168;49.036;7.690;2023-01-31T01:11:47;4.00;99.90
16128;DHT22;8168;49.036;7.690;2023-01-31T01:14:18;3.70;99.90
16128;DHT22;8168;49.036;7.690;2023-01-31T01:16:49;3.80;99.90
16128;DHT22;8168;49.036;7.690;2023-01-31T01:19:19;3.80;99.90
16128;DHT22;8168;49.036;7.690;2023-01-31T01:21:53;3.90;99.90
16128;DHT22;8168;49.036;7.690;2023-01-31T01:24:24;3.80;99.90
16128;DHT22;8168;49.036;7.690;2023-01-31T01:26:55;3.80;99.90
16128;DHT22;8168;49.036;7.690;2023-01-31T01:29:25;3.80;99.90
16128;DHT22;8168;49.036;7.690;2023-01-31T01:31:56;3.90;99.90
16128;DHT22;8168;49.036;7.690;2023-01-31T01:34:26;3.70;99.90
16128;DHT22;8168;49.036;7.690;2023-01-31T01:36:57;3.70;99.90
16128;DHT22;8168;49.036;7.690;2023-01-31T01:39:28;3.90;99.90
16128;DHT22;8168;49.036;7.690;2023-01-31T01:41:59;3.70;99.90
16128;DHT22;8168;49.036;7.690;2023-01-31T01:50:18;4.10;99.90
16128;DHT22;8168;49.036;7.690;2023-01-31T01:56:06;3.70;99.90
16128;DHT22;8168;49.036;7.690;2023-01-31T01:58:41;3.70;99.90
16128;DHT22;8168;49.036;7.690;2023-01-31T02:01:14;3.70;99.90
16128;DHT22;8168;49.036;7.690;2023-01-31T02:03:47;3.70;99.90
16128;DHT22;8168;49.036;7.690;2023-01-31T02:06:18;3.60;99.90
16128;DHT22;8168;49.036;7.690;2023-01-31T02:08:50;3.60;99.90
16128;DHT22;8168;49.036;7.690;2023-01-31T02:11:24;3.60;99.90
16128;DHT22;8168;49.036;7.690;2023-01-31T02:14:06;3.90;99.90
16128;DHT22;8168;49.036;7.690;2023-01-31T02:16:37;3.70;99.90
16128;DHT22;8168;49.036;7.690;2023-01-31T02:46:09;3.50;99.90
16128;DHT22;8168;49.036;7.690;2023-01-31T02:49:00;3.50;99.90
16128;DHT22;8168;49.036;7.690;2023-01-31T02:51:38;3.50;99.90
16128;DHT22;8168;49.036;7.690;2023-01-31T02:54:16;3.50;99.90
16128;DHT22;8168;49.036;7.690;2023-01-31T02:56:49;3.50;99.90
16128;DHT22;8168;49.036;7.690;2023-01-31T02:59:22;3.50;99.90
16128;DHT22;8168;49.036;7.690;2023-01-31T03:02:01;3.50;99.90
16128;DHT22;8168;49.036;7.690;2023-01-31T03:04:33;3.50;99.90
16128;DHT22;8168;49.036;7.690;2023-01-31T03:07:06;3.40;99.90
16128;DHT22;8168;49.036;7.690;2023-01-31T03:09:40;3.80;99.90
16128;DHT22;8168;49.036;7.690;2023-01-31T03:12:27;3.50;99.90
16128;DHT22;8168;49.036;7.690;2023-01-31T03:18:04;3.40;99.90
16128;DHT22;8168;49.036;7.690;2023-01-31T03:20:52;3.50;99.90
16128;DHT22;8168;49.036;7.690;2023-01-31T03:23:26;3.40;99.90
16128;DHT22;8168;49.036;7.690;2023-01-31T03:26:00;3.80;99.90
16128;DHT22;8168;49.036;7.690;2023-01-31T03:28:34;3.40;99.90
16128;DHT22;8168;49.036;7.690;2023-01-31T03:31:55;3.40;99.90
16128;DHT22;8168;49.036;7.690;2023-01-31T03:34:06;3.40;99.90
16128;DHT22;8168;49.036;7.690;2023-01-31T03:39:41;3.40;99.90
16128;DHT22;8168;49.036;7.690;2023-01-31T03:42:24;3.40;99.90
16128;DHT22;8168;49.036;7.690;2023-01-31T03:45:14;3.40;99.90
16128;DHT22;8168;49.036;7.690;2023-01-31T03:47:50;3.40;99.90
16128;DHT22;8168;49.036;7.690;2023-01-31T03:50:32;3.70;99.90
16128;DHT22;8168;49.036;7.690;2023-01-31T03:53:21;3.40;99.90
16128;DHT22;8168;49.036;7.690;2023-01-31T03:56:09;3.50;99.90
16128;DHT22;8168;49.036;7.690;2023-01-31T03:58:50;3.50;99.90
16128;DHT22;8168;49.036;7.690;2023-01-31T04:01:24;3.50;99.90
16128;DHT22;8168;49.036;7.690;2023-01-31T04:04:08;3.50;99.90
16128;DHT22;8168;49.036;7.690;2023-01-31T04:06:39;3.50;99.90
16128;DHT22;8168;49.036;7.690;2023-01-31T04:09:10;3.80;99.90
16128;DHT22;8168;49.036;7.690;2023-01-31T04:11:41;3.50;99.90
16128;DHT22;8168;49.036;7.690;2023-01-31T04:14:16;3.70;99.90
16128;DHT22;8168;49.036;7.690;2023-01-31T04:16:47;3.50;99.90
16128;DHT22;8168;49.036;7.690;2023-01-31T04:19:17;3.50;99.90
16128;DHT22;8168;49.036;7.690;2023-01-31T04:21:48;3.60;99.90
16128;DHT22;8168;49.036;7.690;2023-01-31T04:24:18;3.50;99.90
16128;DHT22;8168;49.036;7.690;2023-01-31T04:26:49;3.50;99.90
16128;DHT22;8168;49.036;7.690;2023-01-31T04:29:20;3.50;99.90
16128;DHT22;8168;49.036;7.690;2023-01-31T04:31:50;3.60;99.90
16128;DHT22;8168;49.036;7.690;2023-01-31T04:34:21;3.50;99.90
16128;DHT22;8168;49.036;7.690;2023-01-31T04:36:52;3.40;99.90
16128;DHT22;8168;49.036;7.690;2023-01-31T04:39:22;3.40;99.90
16128;DHT22;8168;49.036;7.690;2023-01-31T04:41:53;3.40;99.90
16128;DHT22;8168;49.036;7.690;2023-01-31T04:44:24;3.40;99.90
16128;DHT22;8168;49.036;7.690;2023-01-31T04:46:54;3.40;99.90
16128;DHT22;8168;49.036;7.690;2023-01-31T04:49:25;3.40;99.90
16128;DHT22;8168;49.036;7.690;2023-01-31T04:51:56;3.30;99.90
16128;DHT22;8168;49.036;7.690;2023-01-31T04:54:27;3.50;99.90
16128;DHT22;8168;49.036;7.690;2023-01-31T04:56:57;3.40;99.90
16128;DHT22;8168;49.036;7.690;2023-01-31T04:59:28;3.70;99.90
16128;DHT22;8168;49.036;7.690;2023-01-31T05:01:58;3.30;99.90
16128;DHT22;8168;49.036;7.690;2023-01-31T05:04:29;3.30;99.90
16128;DHT22;8168;49.036;7.690;2023-01-31T05:07:00;3.60;99.90
16128;DHT22;8168;49.036;7.690;2023-01-31T05:09:30;3.30;99.90
16128;DHT22;8168;49.036;7.690;2023-01-31T05:12:01;3.30;99.90
16128;DHT22;8168;49.036;7.690;2023-01-31T05:14:31;3.20;99.90
16128;DHT22;8168;49.036;7.690;2023-01-31T05:17:02;3.20;99.90
16128;DHT22;8168;49.036;7.690;2023-01-31T05:19:33;3.90;99.90
16128;DHT22;8168;49.036;7.690;2023-01-31T05:22:04;3.20;99.90
16128;DHT22;8168;49.036;7.690;2023-01-31T05:24:34;3.20;99.90
16128;DHT22;8168;49.036;7.690;2023-01-31T05:27:06;3.20;99.90
16128;DHT22;8168;49.036;7.690;2023-01-31T05:29:37;3.80;99.90
16128;DHT22;8168;49.036;7.690;2023-01-31T05:32:07;3.10;99.90
16128;DHT22;8168;49.036;7.690;2023-01-31T05:34:38;3.10;99.90
16128;DHT22;8168;49.036;7.690;2023-01-31T05:37:08;3.10;99.90
16128;DHT22;8168;49.036;7.690;2023-01-31T05:39:39;3.10;99.90
16128;DHT22;8168;49.036;7.690;2023-01-31T05:42:10;3.10;99.90
16128;DHT22;8168;49.036;7.690;2023-01-31T05:44:40;3.20;99.90
16128;DHT22;8168;49.036;7.690;2023-01-31T05:47:11;3.10;99.90
16128;DHT22;8168;49.036;7.690;2023-01-31T05:49:42;3.10;99.90
16128;DHT22;8168;49.036;7.690;2023-01-31T05:52:12;3.10;99.90
16128;DHT22;8168;49.036;7.690;2023-01-31T05:54:43;3.10;99.90
16128;DHT22;8168;49.036;7.690;2023-01-31T05:57:13;3.10;99.90
16128;DHT22;8168;49.036;7.690;2023-01-31T05:59:45;3.10;99.90
16128;DHT22;8168;49.036;7.690;2023-01-31T06:02:15;3.50;99.90
16128;DHT22;8168;49.036;7.690;2023-01-31T06:04:46;3.10;99.90
16128;DHT22;8168;49.036;7.690;2023-01-31T06:07:17;3.10;99.90
16128;DHT22;8168;49.036;7.690;2023-01-31T06:09:47;3.10;99.90
16128;DHT22;8168;49.036;7.690;2023-01-31T06:12:18;3.10;99.90
16128;DHT22;8168;49.036;7.690;2023-01-31T06:14:48;3.10;99.90
16128;DHT22;8168;49.036;7.690;2023-01-31T06:17:19;3.10;99.90
16128;DHT22;8168;49.036;7.690;2023-01-31T06:19:53;3.00;99.90
16128;DHT22;8168;49.036;7.690;2023-01-31T06:22:23;3.00;99.90
16128;DHT22;8168;49.036;7.690;2023-01-31T06:24:54;3.10;99.90
16128;DHT22;8168;49.036;7.690;2023-01-31T06:27:25;3.10;99.90
16128;DHT22;8168;49.036;7.690;2023-01-31T06:29:55;3.10;99.90
16128;DHT22;8168;49.036;7.690;2023-01-31T06:32:26;3.20;99.90
16128;DHT22;8168;49.036;7.690;2023-01-31T06:34:56;3.10;99.90
16128;DHT22;8168;49.036;7.690;2023-01-31T06:37:27;3.10;99.90
16128;DHT22;8168;49.036;7.690;2023-01-31T06:39:57;3.40;99.90
16128;DHT22;8168;49.036;7.690;2023-01-31T06:42:29;3.20;99.90
16128;DHT22;8168;49.036;7.690;2023-01-31T06:44:59;3.40;99.90
16128;DHT22;8168;49.036;7.690;2023-01-31T06:47:30;3.20;99.90
16128;DHT22;8168;49.036;7.690;2023-01-31T06:50:00;3.20;99.90
16128;DHT22;8168;49.036;7.690;2023-01-31T06:52:31;3.20;99.90
16128;DHT22;8168;49.036;7.690;2023-01-31T06:55:02;3.20;99.90
16128;DHT22;8168;49.036;7.690;2023-01-31T06:57:32;3.20;99.90
16128;DHT22;8168;49.036;7.690;2023-01-31T07:00:03;3.30;99.90
16128;DHT22;8168;49.036;7.690;2023-01-31T07:02:34;3.20;99.90
16128;DHT22;8168;49.036;7.690;2023-01-31T07:05:05;3.20;99.90
16128;DHT22;8168;49.036;7.690;2023-01-31T07:07:36;3.20;99.90
16128;DHT22;8168;49.036;7.690;2023-01-31T07:10:07;3.50;99.90
16128;DHT22;8168;49.036;7.690;2023-01-31T07:12:39;3.20;99.90
16128;DHT22;8168;49.036;7.690;2023-01-31T07:15:10;3.20;99.90
16128;DHT22;8168;49.036;7.690;2023-01-31T07:17:40;3.20;99.90
16128;DHT22;8168;49.036;7.690;2023-01-31T07:20:11;3.30;99.90
16128;DHT22;8168;49.036;7.690;2023-01-31T07:22:42;3.30;99.90
16128;DHT22;8168;49.036;7.690;2023-01-31T07:25:12;3.20;99.90
16128;DHT22;8168;49.036;7.690;2023-01-31T07:27:43;3.20;99.90
16128;DHT22;8168;49.036;7.690;2023-01-31T07:30:14;3.20;99.90
16128;DHT22;8168;49.036;7.690;2023-01-31T07:32:44;3.20;99.90
16128;DHT22;8168;49.036;7.690;2023-01-31T07:35:15;3.20;99.90
16128;DHT22;8168;49.036;7.690;2023-01-31T07:37:46;3.20;99.90
16128;DHT22;8168;49.036;7.690;2023-01-31T07:40:17;3.40;99.90
16128;DHT22;8168;49.036;7.690;2023-01-31T07:42:47;3.20;99.90
16128;DHT22;8168;49.036;7.690;2023-01-31T07:45:18;3.20;99.90
16128;DHT22;8168;49.036;7.690;2023-01-31T07:47:49;3.20;99.90
16128;DHT22;8168;49.036;7.690;2023-01-31T07:50:20;3.20;99.90
16128;DHT22;8168;49.036;7.690;2023-01-31T07:52:51;3.20;99.90
16128;DHT22;8168;49.036;7.690;2023-01-31T07:55:21;3.50;99.90
16128;DHT22;8168;49.036;7.690;2023-01-31T07:57:52;3.20;99.90
16128;DHT22;8168;49.036;7.690;2023-01-31T08:00:22;3.20;99.90
16128;DHT22;8168;49.036;7.690;2023-01-31T08:03:32;3.20;99.90
16128;DHT22;8168;49.036;7.690;2023-01-31T08:06:10;3.30;99.90
16128;DHT22;8168;49.036;7.690;2023-01-31T08:08:42;3.30;99.90
16128;DHT22;8168;49.036;7.690;2023-01-31T08:11:13;3.20;99.90
16128;DHT22;8168;49.036;7.690;2023-01-31T08:13:43;3.20;99.90
16128;DHT22;8168;49.036;7.690;2023-01-31T08:16:14;3.30;99.90
16128;DHT22;8168;49.036;7.690;2023-01-31T08:18:46;3.30;99.90
16128;DHT22;8168;49.036;7.690;2023-01-31T08:21:17;3.20;99.90
16128;DHT22;8168;49.036;7.690;2023-01-31T08:23:48;3.50;99.90
16128;DHT22;8168;49.036;7.690;2023-01-31T08:26:20;3.30;99.90
16128;DHT22;8168;49.036;7.690;2023-01-31T08:28:52;3.30;99.90
16128;DHT22;8168;49.036;7.690;2023-01-31T08:31:27;3.30;99.90
16128;DHT22;8168;49.036;7.690;2023-01-31T08:33:57;3.40;99.90
16128;DHT22;8168;49.036;7.690;2023-01-31T08:36:29;3.20;99.90
16128;DHT22;8168;49.036;7.690;2023-01-31T08:39:03;3.20;99.90
16128;DHT22;8168;49.036;7.690;2023-01-31T08:41:35;3.20;99.90
16128;DHT22;8168;49.036;7.690;2023-01-31T08:44:06;3.20;99.90
16128;DHT22;8168;49.036;7.690;2023-01-31T08:46:37;3.20;99.90
16128;DHT22;8168;49.036;7.690;2023-01-31T08:49:07;3.20;99.90
16128;DHT22;8168;49.036;7.690;2023-01-31T08:51:39;3.20;99.90
16128;DHT22;8168;49.036;7.690;2023-01-31T08:54:10;3.20;99.90
16128;DHT22;8168;49.036;7.690;2023-01-31T08:56:42;3.60;99.90
16128;DHT22;8168;49.036;7.690;2023-01-31T08:59:15;3.20;99.90
16128;DHT22;8168;49.036;7.690;2023-01-31T09:01:46;3.20;99.90
16128;DHT22;8168;49.036;7.690;2023-01-31T09:04:17;3.20;99.90
16128;DHT22;8168;49.036;7.690;2023-01-31T09:06:47;3.40;99.90
16128;DHT22;8168;49.036;7.690;2023-01-31T09:09:19;3.20;99.90
16128;DHT22;8168;49.036;7.690;2023-01-31T09:11:49;3.30;99.90
16128;DHT22;8168;49.036;7.690;2023-01-31T09:14:20;3.70;99.90
16128;DHT22;8168;49.036;7.690;2023-01-31T09:16:50;3.30;99.90
16128;DHT22;8168;49.036;7.690;2023-01-31T09:19:21;3.30;99.90
16128;DHT22;8168;49.036;7.690;2023-01-31T09:21:52;3.40;99.90
16128;DHT22;8168;49.036;7.690;2023-01-31T09:24:23;3.70;99.90
16128;DHT22;8168;49.036;7.690;2023-01-31T09:26:54;3.40;99.90
16128;DHT22;8168;49.036;7.690;2023-01-31T09:29:25;3.40;99.90
16128;DHT22;8168;49.036;7.690;2023-01-31T09:31:57;3.50;99.90
16128;DHT22;8168;49.036;7.690;2023-01-31T09:34:29;3.60;99.90
16128;DHT22;8168;49.036;7.690;2023-01-31T09:36:59;3.60;99.90
16128;DHT22;8168;49.036;7.690;2023-01-31T09:39:30;3.60;99.90
16128;DHT22;8168;49.036;7.690;2023-01-31T09:42:15;3.60;99.90
16128;DHT22;8168;49.036;7.690;2023-01-31T09:45:09;3.60;99.90
16128;DHT22;8168;49.036;7.690;2023-01-31T09:47:47;3.60;99.90
16128;DHT22;8168;49.036;7.690;2023-01-31T09:53:13;3.60;99.90
16128;DHT22;8168;49.036;7.690;2023-01-31T09:58:55;3.70;99.90
16128;DHT22;8168;49.036;7.690;2023-01-31T10:01:36;3.80;99.90
16128;DHT22;8168;49.036;7.690;2023-01-31T10:07:25;3.80;99.90
16128;DHT22;8168;49.036;7.690;2023-01-31T10:10:14;3.90;99.90
16128;DHT22;8168;49.036;7.690;2023-01-31T10:12:52;4.10;99.90
16128;DHT22;8168;49.036;7.690;2023-01-31T10:15:45;3.90;99.90
16128;DHT22;8168;49.036;7.690;2023-01-31T10:21:03;3.90;99.90
16128;DHT22;8168;49.036;7.690;2023-01-31T10:28:53;4.00;99.90
16128;DHT22;8168;49.036;7.690;2023-01-31T10:34:52;4.00;99.90
16128;DHT22;8168;49.036;7.690;2023-01-31T10:39:42;4.20;99.90
16128;DHT22;8168;49.036;7.690;2023-01-31T10:42:35;4.40;99.90
16128;DHT22;8168;49.036;7.690;2023-01-31T10:45:19;4.30;99.90
16128;DHT22;8168;49.036;7.690;2023-01-31T10:47:56;4.40;99.90
16128;DHT22;8168;49.036;7.690;2023-01-31T10:58:44;4.50;99.90
16128;DHT22;8168;49.036;7.690;2023-01-31T11:01:16;4.50;99.90
16128;DHT22;8168;49.036;7.690;2023-01-31T11:03:51;5.00;99.90
16128;DHT22;8168;49.036;7.690;2023-01-31T11:06:23;4.50;99.90
16128;DHT22;8168;49.036;7.690;2023-01-31T11:08:59;4.50;99.90
16128;DHT22;8168;49.036;7.690;2023-01-31T11:11:30;4.50;99.90
16128;DHT22;8168;49.036;7.690;2023-01-31T11:14:04;4.40;99.90
16128;DHT22;8168;49.036;7.690;2023-01-31T11:16:38;4.80;99.90
16128;DHT22;8168;49.036;7.690;2023-01-31T11:21:56;4.70;99.90
16128;DHT22;8168;49.036;7.690;2023-01-31T11:24:30;4.80;99.90
16128;DHT22;8168;49.036;7.690;2023-01-31T11:27:05;4.70;99.90
16128;DHT22;8168;49.036;7.690;2023-01-31T11:29:39;4.60;99.90
16128;DHT22;8168;49.036;7.690;2023-01-31T11:32:18;4.60;99.90
16128;DHT22;8168;49.036;7.690;2023-01-31T11:37:57;4.70;99.90
16128;DHT22;8168;49.036;7.690;2023-01-31T11:40:36;4.70;99.90
16128;DHT22;8168;49.036;7.690;2023-01-31T11:45:57;4.70;99.90
16128;DHT22;8168;49.036;7.690;2023-01-31T11:48:41;4.80;99.90
16128;DHT22;8168;49.036;7.690;2023-01-31T11:51:24;4.80;99.90
16128;DHT22;8168;49.036;7.690;2023-01-31T11:53:56;4.80;99.90
16128;DHT22;8168;49.036;7.690;2023-01-31T11:56:30;4.80;99.90
16128;DHT22;8168;49.036;7.690;2023-01-31T11:59:04;4.80;99.90
16128;DHT22;8168;49.036;7.690;2023-01-31T12:01:50;4.80;99.90
16128;DHT22;8168;49.036;7.690;2023-01-31T12:04:29;4.80;99.90
16128;DHT22;8168;49.036;7.690;2023-01-31T12:07:08;4.80;99.90
16128;DHT22;8168;49.036;7.690;2023-01-31T12:09:49;4.80;99.90
16128;DHT22;8168;49.036;7.690;2023-01-31T12:12:29;4.80;99.90
16128;DHT22;8168;49.036;7.690;2023-01-31T12:15:03;4.80;99.90
16128;DHT22;8168;49.036;7.690;2023-01-31T12:17:47;4.90;99.90
16128;DHT22;8168;49.036;7.690;2023-01-31T12:28:40;4.90;99.90
16128;DHT22;8168;49.036;7.690;2023-01-31T12:43:00;4.90;99.90
16128;DHT22;8168;49.036;7.690;2023-01-31T12:48:58;4.90;99.90
16128;DHT22;8168;49.036;7.690;2023-01-31T12:51:37;4.90;99.90
16128;DHT22;8168;49.036;7.690;2023-01-31T12:57:14;4.80;99.90
16128;DHT22;8168;49.036;7.690;2023-01-31T13:03:04;4.90;99.90
16128;DHT22;8168;49.036;7.690;2023-01-31T13:06:10;4.80;99.90
16128;DHT22;8168;49.036;7.690;2023-01-31T13:08:34;4.90;99.90
16128;DHT22;8168;49.036;7.690;2023-01-31T13:11:19;4.90;99.90
16128;DHT22;8168;49.036;7.690;2023-01-31T13:13:58;4.90;99.90
16128;DHT22;8168;49.036;7.690;2023-01-31T13:16:37;4.90;99.90
16128;DHT22;8168;49.036;7.690;2023-01-31T13:19:26;4.90;99.90
16128;DHT22;8168;49.036;7.690;2023-01-31T13:22:02;4.80;99.90
16128;DHT22;8168;49.036;7.690;2023-01-31T13:24:40;4.90;99.90
16128;DHT22;8168;49.036;7.690;2023-01-31T13:27:36;4.90;99.90
16128;DHT22;8168;49.036;7.690;2023-01-31T13:30:22;4.90;99.90
16128;DHT22;8168;49.036;7.690;2023-01-31T13:32:55;4.90;99.90
16128;DHT22;8168;49.036;7.690;2023-01-31T13:35:39;5.50;99.90
16128;DHT22;8168;49.036;7.690;2023-01-31T13:38:16;5.20;99.90
16128;DHT22;8168;49.036;7.690;2023-01-31T13:40:52;4.90;99.90
16128;DHT22;8168;49.036;7.690;2023-01-31T13:43:24;4.90;99.90
16128;DHT22;8168;49.036;7.690;2023-01-31T13:46:01;5.00;99.90
16128;DHT22;8168;49.036;7.690;2023-01-31T13:48:40;4.90;99.90
16128;DHT22;8168;49.036;7.690;2023-01-31T13:56:38;4.90;99.90
16128;DHT22;8168;49.036;7.690;2023-01-31T13:59:10;4.90;99.90
16128;DHT22;8168;49.036;7.690;2023-01-31T14:01:46;4.90;99.90
16128;DHT22;8168;49.036;7.690;2023-01-31T14:06:54;4.90;99.90
16128;DHT22;8168;49.036;7.690;2023-01-31T14:09:36;5.00;99.90
16128;DHT22;8168;49.036;7.690;2023-01-31T14:22:26;4.90;99.90
16128;DHT22;8168;49.036;7.690;2023-01-31T14:25:05;4.90;99.90
16128;DHT22;8168;49.036;7.690;2023-01-31T14:27:42;4.90;99.90
16128;DHT22;8168;49.036;7.690;2023-01-31T14:49:51;5.00;99.90
16128;DHT22;8168;49.036;7.690;2023-01-31T14:57:43;5.40;99.90
16128;DHT22;8168;49.036;7.690;2023-01-31T15:00:17;5.10;99.90
16128;DHT22;8168;49.036;7.690;2023-01-31T15:11:01;5.50;99.90
16128;DHT22;8168;49.036;7.690;2023-01-31T15:19:54;5.10;99.90
16128;DHT22;8168;49.036;7.690;2023-01-31T15:22:26;5.10;99.90
16128;DHT22;8168;49.036;7.690;2023-01-31T15:25:04;5.10;99.90
16128;DHT22;8168;49.036;7.690;2023-01-31T15:27:39;5.10;99.90
16128;DHT22;8168;49.036;7.690;2023-01-31T15:30:16;5.10;99.90
16128;DHT22;8168;49.036;7.690;2023-01-31T15:38:48;5.10;99.90
16128;DHT22;8168;49.036;7.690;2023-01-31T15:44:23;5.10;99.90
16128;DHT22;8168;49.036;7.690;2023-01-31T15:46:56;5.20;99.90
16128;DHT22;8168;49.036;7.690;2023-01-31T15:49:41;5.20;99.90
16128;DHT22;8168;49.036;7.690;2023-01-31T15:52:19;5.20;99.90
16128;DHT22;8168;49.036;7.690;2023-01-31T15:54:56;5.10;99.90
16128;DHT22;8168;49.036;7.690;2023-01-31T15:57:33;5.20;99.90
16128;DHT22;8168;49.036;7.690;2023-01-31T16:00:07;5.10;99.90
16128;DHT22;8168;49.036;7.690;2023-01-31T16:02:38;5.10;99.90
16128;DHT22;8168;49.036;7.690;2023-01-31T16:05:19;5.10;99.90
16128;DHT22;8168;49.036;7.690;2023-01-31T16:07:50;5.00;99.90
16128;DHT22;8168;49.036;7.690;2023-01-31T16:10:21;5.00;99.90
16128;DHT22;8168;49.036;7.690;2023-01-31T16:12:54;5.00;99.90
16128;DHT22;8168;49.036;7.690;2023-01-31T16:15:27;5.00;99.90
16128;DHT22;8168;49.036;7.690;2023-01-31T16:18:00;5.00;99.90
16128;DHT22;8168;49.036;7.690;2023-01-31T16:20:37;5.00;99.90
16128;DHT22;8168;49.036;7.690;2023-01-31T16:26:25;4.90;99.90
16128;DHT22;8168;49.036;7.690;2023-01-31T16:28:59;4.90;99.90
16128;DHT22;8168;49.036;7.690;2023-01-31T16:31:33;4.90;99.90
16128;DHT22;8168;49.036;7.690;2023-01-31T16:34:25;4.90;99.90
16128;DHT22;8168;49.036;7.690;2023-01-31T16:37:06;4.90;99.90
16128;DHT22;8168;49.036;7.690;2023-01-31T16:39:48;4.90;99.90
16128;DHT22;8168;49.036;7.690;2023-01-31T16:42:21;4.90;99.90
16128;DHT22;8168;49.036;7.690;2023-01-31T16:44:52;4.90;99.90
16128;DHT22;8168;49.036;7.690;2023-01-31T16:56:20;4.90;99.90
16128;DHT22;8168;49.036;7.690;2023-01-31T16:58:56;4.90;99.90
16128;DHT22;8168;49.036;7.690;2023-01-31T17:01:31;4.90;99.90
16128;DHT22;8168;49.036;7.690;2023-01-31T17:06:40;5.00;99.90
16128;DHT22;8168;49.036;7.690;2023-01-31T17:09:17;5.00;99.90
16128;DHT22;8168;49.036;7.690;2023-01-31T17:11:48;4.80;99.90
16128;DHT22;8168;49.036;7.690;2023-01-31T17:14:19;5.10;99.90
16128;DHT22;8168;49.036;7.690;2023-01-31T17:16:53;4.80;99.90
16128;DHT22;8168;49.036;7.690;2023-01-31T17:19:24;5.10;99.90
16128;DHT22;8168;49.036;7.690;2023-01-31T17:21:54;4.80;99.90
16128;DHT22;8168;49.036;7.690;2023-01-31T17:24:25;4.80;99.90
16128;DHT22;8168;49.036;7.690;2023-01-31T17:26:55;4.80;99.90
16128;DHT22;8168;49.036;7.690;2023-01-31T17:29:26;4.80;99.90
16128;DHT22;8168;49.036;7.690;2023-01-31T17:31:56;4.80;99.90
16128;DHT22;8168;49.036;7.690;2023-01-31T17:34:28;4.80;99.90
16128;DHT22;8168;49.036;7.690;2023-01-31T17:36:58;4.80;99.90
16128;DHT22;8168;49.036;7.690;2023-01-31T17:39:29;4.80;99.90
16128;DHT22;8168;49.036;7.690;2023-01-31T17:42:00;5.00;99.90
16128;DHT22;8168;49.036;7.690;2023-01-31T17:44:31;4.90;99.90
16128;DHT22;8168;49.036;7.690;2023-01-31T17:47:01;4.90;99.90
16128;DHT22;8168;49.036;7.690;2023-01-31T17:49:32;4.90;99.90
16128;DHT22;8168;49.036;7.690;2023-01-31T17:52:04;4.90;99.90
16128;DHT22;8168;49.036;7.690;2023-01-31T17:54:35;5.00;99.90
16128;DHT22;8168;49.036;7.690;2023-01-31T17:57:05;4.90;99.90
16128;DHT22;8168;49.036;7.690;2023-01-31T17:59:36;4.90;99.90
16128;DHT22;8168;49.036;7.690;2023-01-31T18:02:08;4.90;99.90
16128;DHT22;8168;49.036;7.690;2023-01-31T18:04:38;4.90;99.90
16128;DHT22;8168;49.036;7.690;2023-01-31T18:07:09;4.90;99.90
16128;DHT22;8168;49.036;7.690;2023-01-31T18:09:39;4.90;99.90
16128;DHT22;8168;49.036;7.690;2023-01-31T18:12:10;4.90;99.90
16128;DHT22;8168;49.036;7.690;2023-01-31T18:14:41;4.90;99.90
16128;DHT22;8168;49.036;7.690;2023-01-31T18:17:12;4.90;99.90
16128;DHT22;8168;49.036;7.690;2023-01-31T18:19:42;4.90;99.90
16128;DHT22;8168;49.036;7.690;2023-01-31T18:22:13;4.90;99.90
16128;DHT22;8168;49.036;7.690;2023-01-31T18:24:44;4.90;99.90
16128;DHT22;8168;49.036;7.690;2023-01-31T18:27:14;5.00;99.90
16128;DHT22;8168;49.036;7.690;2023-01-31T18:29:45;5.00;99.90
16128;DHT22;8168;49.036;7.690;2023-01-31T18:32:15;5.00;99.90
16128;DHT22;8168;49.036;7.690;2023-01-31T18:34:46;5.00;99.90
16128;DHT22;8168;49.036;7.690;2023-01-31T18:37:17;5.00;99.90
16128;DHT22;8168;49.036;7.690;2023-01-31T18:39:50;5.00;99.90
16128;DHT22;8168;49.036;7.690;2023-01-31T18:42:21;5.00;99.90
16128;DHT22;8168;49.036;7.690;2023-01-31T18:44:52;5.00;99.90
16128;DHT22;8168;49.036;7.690;2023-01-31T18:47:23;5.00;99.90
16128;DHT22;8168;49.036;7.690;2023-01-31T18:49:53;5.00;99.90
16128;DHT22;8168;49.036;7.690;2023-01-31T18:52:24;5.00;99.90
16128;DHT22;8168;49.036;7.690;2023-01-31T18:54:54;5.00;99.90
16128;DHT22;8168;49.036;7.690;2023-01-31T18:57:25;5.00;99.90
16128;DHT22;8168;49.036;7.690;2023-01-31T18:59:56;5.00;99.90
16128;DHT22;8168;49.036;7.690;2023-01-31T19:02:26;5.00;99.90
16128;DHT22;8168;49.036;7.690;2023-01-31T19:04:57;5.00;99.90
16128;DHT22;8168;49.036;7.690;2023-01-31T19:07:29;4.90;99.90
16128;DHT22;8168;49.036;7.690;2023-01-31T19:10:00;5.00;99.90
16128;DHT22;8168;49.036;7.690;2023-01-31T19:12:30;5.00;99.90
16128;DHT22;8168;49.036;7.690;2023-01-31T19:15:03;5.00;99.90
16128;DHT22;8168;49.036;7.690;2023-01-31T19:17:33;5.00;99.90
16128;DHT22;8168;49.036;7.690;2023-01-31T19:20:04;5.00;99.90
16128;DHT22;8168;49.036;7.690;2023-01-31T19:22:35;5.00;99.90
16128;DHT22;8168;49.036;7.690;2023-01-31T19:25:06;2.90;99.90
16128;DHT22;8168;49.036;7.690;2023-01-31T19:27:38;5.00;99.90
16128;DHT22;8168;49.036;7.690;2023-01-31T19:30:10;5.00;99.90
16128;DHT22;8168;49.036;7.690;2023-01-31T19:32:41;5.00;99.90
16128;DHT22;8168;49.036;7.690;2023-01-31T19:35:11;5.10;99.90
16128;DHT22;8168;49.036;7.690;2023-01-31T19:37:42;5.10;99.90
16128;DHT22;8168;49.036;7.690;2023-01-31T19:40:12;5.10;99.90
16128;DHT22;8168;49.036;7.690;2023-01-31T19:42:43;5.10;99.90
16128;DHT22;8168;49.036;7.690;2023-01-31T19:45:15;5.10;99.90
16128;DHT22;8168;49.036;7.690;2023-01-31T19:47:45;5.10;99.90
16128;DHT22;8168;49.036;7.690;2023-01-31T19:50:16;5.00;99.90
16128;DHT22;8168;49.036;7.690;2023-01-31T19:52:48;5.10;99.90
16128;DHT22;8168;49.036;7.690;2023-01-31T19:55:19;5.10;99.90